This is the latest recevied weather packets stored in our database for station/object IW0HP-3. If no packets are shown the sender has not sent any weather packets the latest 10 day(s).
| Time | Temp. | Humidity | Pressure | Rain* | Wind** | Luminosity | Snow |
|---|---|---|---|---|---|---|---|
| 1777609437 | 12.22° C | 48% | 1022 hPa | - | - | - | - |
| 1777608232 | 12.22° C | 48% | 1021.7 hPa | - | - | - | - |
| 1777607028 | 12.22° C | 48% | 1021.6 hPa | - | - | - | - |
| 1777605823 | 12.22° C | 48% | 1021.6 hPa | - | - | - | - |
| 1777604619 | 12.78° C | 49% | 1021.3 hPa | - | - | - | - |
| 1777603414 | 13.33° C | 47% | 1021.4 hPa | - | - | - | - |
| 1777601005 | 13.89° C | 48% | 1021.3 hPa | - | - | - | - |
| 1777599801 | 13.89° C | 47% | 1021.3 hPa | - | - | - | - |
| 1777597392 | 14.44° C | 47% | 1021 hPa | - | - | - | - |
| 1777596187 | 14.44° C | 47% | 1021 hPa | - | - | - | - |
| 1777594982 | 15° C | 47% | 1020.8 hPa | - | - | - | - |
| 1777593777 | 15° C | 46% | 1020.8 hPa | - | - | - | - |
| 1777592572 | 15° C | 46% | 1020.8 hPa | - | - | - | - |
| 1777591367 | 15.56° C | 46% | 1021 hPa | - | - | - | - |
| 1777590162 | 15.56° C | 46% | 1021 hPa | - | - | - | - |
| 1777588957 | 15.56° C | 46% | 1021 hPa | - | - | - | - |
| 1777587752 | 16.11° C | 48% | 1020.9 hPa | - | - | - | - |
| 1777586547 | 16.67° C | 52% | 1020.6 hPa | - | - | - | - |
| 1777585342 | 16.67° C | 58% | 1020.1 hPa | - | - | - | - |
| 1777584137 | 16.67° C | 59% | 1019.8 hPa | - | - | - | - |
| 1777582932 | 16.67° C | 57% | 1019.6 hPa | - | - | - | - |
| 1777581726 | 17.22° C | 57% | 1019.4 hPa | - | - | - | - |
| 1777580521 | 17.22° C | 58% | 1019.4 hPa | - | - | - | - |
| 1777579316 | 17.22° C | 59% | 1019.2 hPa | - | - | - | - |
| 1777578111 | 17.78° C | 60% | 1019.1 hPa | - | - | - | - |
* Rain since midnight (hover to see other rain measurements)
** Current wind speed in m/s (hover to see current wind gust speed)